APL Denmark — A8JX9 — position and weather

sailwx.info

Track history (hours):
 
Tides and Currents Weather Stations Pressure Air Temp Water Temp Dewpoint Dewpoint Depression Visibility Wind Speed Wind Dir Waves Ship Positions

APL Denmark

Last reported at 2014-Oct-09 02:19 UTC. Time now 2014-Oct-23 08:52 UTC.
Position N 38°21' E 010°40'.
Warning: this ship's position is 14 days out of date.

Length 277 m; beam 40 m; draft 14 m.

Type: Ship (hazmat cat A). MMSI: 636091157.

Date/timePositionNaut miles runAvg speedWind from/ knotsBaromVisibWave heightAir tempDewpointWater temp
2014-Oct-09 02:19N 38°21' E 010°40'1519.5
2014-Oct-09 01:33N 38°29' E 010°24'1919.5
2014-Oct-09 00:34N 38°39' E 010°02'2019.4
2014-Oct-08 23:31N 38°50' E 009°41'1717.8
2014-Oct-08 22:33N 38°59' E 009°22'8 8.2
2014-Oct-08 21:33N 39°03' E 009°13'1111.3
2014-Oct-08 20:33N 39°13' E 009°04'0 0.3
2014-Oct-08 19:31N 39°13' E 009°04'0 0.0
2014-Oct-08 18:31N 39°13' E 009°04'0 0.0
2014-Oct-08 17:31N 39°13' E 009°04'0 0.0
2014-Oct-08 16:31N 39°13' E 009°04'0 0.0
2014-Oct-08 15:31N 39°13' E 009°04'0 0.0
2014-Oct-08 14:28N 39°13' E 009°04'0 0.0
2014-Oct-08 13:28N 39°13' E 009°04'0 0.0
2014-Oct-08 12:31N 39°13' E 009°04'0 0.0
2014-Oct-08 11:31N 39°13' E 009°04'0 0.0
2014-Oct-08 10:31N 39°13' E 009°04'0 0.0
2014-Oct-08 09:31N 39°13' E 009°04'0 0.0
2014-Oct-08 08:31N 39°13' E 009°04'0 0.0
2014-Oct-08 07:31N 39°13' E 009°04'0 0.0
2014-Oct-08 06:31N 39°13' E 009°04'0 0.0
2014-Oct-08 05:31N 39°13' E 009°04'0 0.4
2014-Oct-08 04:33N 39°13' E 009°04'8 8.2
2014-Oct-08 03:33N 39°05' E 009°07'1413.9
2014-Oct-08 02:33N 38°52' E 009°02'1716.6
2014-Oct-08 01:33N 38°46' E 008°42'1817.7
2014-Oct-08 00:33N 38°41' E 008°20'2017.7
2014-Oct-07 23:26N 38°36' E 007°55'1617.7
2014-Oct-07 22:31N 38°32' E 007°35'18217.6
2014-Oct-07 12:09N 37°42' E 003°52'1217.7
2014-Oct-07 11:28N 37°39' E 003°38'3417.6
2014-Oct-07 09:33N 37°30' E 002°57'1817.5
2014-Oct-07 08:32N 37°25' E 002°35'6817.2
2014-Oct-07 04:33N 37°07' E 001°12'1716.6
2014-Oct-07 03:32N 37°02' E 000°52'1717.2
2014-Oct-07 02:33N 36°58' E 000°32'1716.9
2014-Oct-07 01:33N 36°53' E 000°11'1916.6
2014-Oct-07 00:24N 36°48' W 000°12'24916.8
2014-Oct-06 09:33N 35°59' W 005°15'183 6.1
2014-Oct-05 03:33N 36°30' W 008°59'2210.1
2014-Oct-05 01:22N 36°39' W 009°24'910.7
2014-Oct-05 00:30N 36°46' W 009°32'4911.3
2014-Oct-04 20:08N 37°33' W 009°47'810.9
2014-Oct-04 19:22N 37°42' W 009°49'2011.0
2014-Oct-04 17:31N 38°01' W 009°55'1111.2
2014-Oct-04 16:33N 38°12' W 009°58'1411.2
2014-Oct-04 15:18N 38°26' W 010°02'1911.0
2014-Oct-04 13:32N 38°45' W 010°07'1311.3
2014-Oct-04 12:25N 38°57' W 010°07'1111.1
2014-Oct-04 11:27N 39°08' W 010°07'1110.9
2014-Oct-04 10:27N 39°19' W 010°07'  
2014-Oct-01 13:28N 50°20' W 001°01'1512.4
2014-Oct-01 12:17N 50°23' W 000°39'912.8
2014-Oct-01 11:33N 50°25' W 000°24'1513.8
2014-Oct-01 10:28N 50°29' W 000°02'1314.6
2014-Oct-01 09:34N 50°34' E 000°18'1515.1
2014-Oct-01 08:34N 50°38' E 000°41'1515.3
2014-Oct-01 07:34N 50°48' E 000°60'1514.6
2014-Oct-01 06:33N 50°58' E 001°17'1313.3
2014-Oct-01 05:33N 51°06' E 001°33'1212.3
2014-Oct-01 04:33N 51°15' E 001°47'1313.4
2014-Oct-01 03:33N 51°28' E 001°52'1515.1
2014-Oct-01 02:34N 51°43' E 001°45'9 8.6
2014-Oct-01 01:33N 51°46' E 001°32'1515.2
2014-Oct-01 00:34N 51°35' E 001°15'1414.4
2014-Sep-30 23:33N 51°29' E 000°54'1413.6
2014-Sep-30 22:33N 51°30' E 000°32'1 1.0
2014-Sep-30 21:32N 51°30' E 000°30'0 0.0
2014-Sep-30 20:32N 51°30' E 000°30'0 0.0
2014-Sep-30 19:32N 51°30' E 000°30'0 0.0
2014-Sep-30 18:32N 51°30' E 000°30'0 0.0
2014-Sep-30 17:32N 51°30' E 000°30'0 0.0
2014-Sep-30 16:32N 51°30' E 000°30'0 0.0
2014-Sep-30 15:29N 51°30' E 000°30'0 0.0
2014-Sep-30 14:32N 51°30' E 000°30'0 0.0
2014-Sep-30 13:32N 51°30' E 000°30'0 0.0
2014-Sep-30 12:32N 51°30' E 000°30'0 0.0
2014-Sep-30 11:32N 51°30' E 000°30'0 0.0
2014-Sep-30 10:32N 51°30' E 000°30'0 0.0
2014-Sep-30 09:32N 51°30' E 000°30'0 0.0
2014-Sep-30 08:32N 51°30' E 000°30'0 0.0
2014-Sep-30 07:32N 51°30' E 000°30'0 0.0
2014-Sep-30 06:32N 51°30' E 000°30'0 0.0
2014-Sep-30 05:29N 51°30' E 000°30'1 1.1
2014-Sep-30 04:33N 51°30' E 000°32'1212.3
2014-Sep-30 03:34N 51°29' E 000°52'1414.0
2014-Sep-30 02:33N 51°34' E 001°13'1616.4
2014-Sep-30 01:34N 51°46' E 001°32'9 9.3
2014-Sep-30 00:33N 51°53' E 001°40'0 0.4
2014-Sep-29 23:31N 51°54' E 001°40'0 0.0
2014-Sep-29 22:31N 51°54' E 001°40'0 0.2
2014-Sep-29 21:31N 51°54' E 001°40'0 0.1
2014-Sep-29 20:31N 51°54' E 001°40'0 0.1
2014-Sep-29 19:31N 51°54' E 001°40'0 0.0
2014-Sep-29 18:31N 51°54' E 001°40'0 0.0
2014-Sep-29 17:31N 51°54' E 001°40'0 0.0
2014-Sep-29 16:31N 51°54' E 001°40'0 0.0
2014-Sep-29 15:28N 51°54' E 001°40'0 0.2
2014-Sep-29 14:33N 51°54' E 001°40'5 4.7
2014-Sep-29 13:33N 51°52' E 001°47'10 9.5
2014-Sep-29 12:33N 51°43' E 001°49'9 9.0
2014-Sep-29 11:33N 51°34' E 001°51'5 4.5
2014-Sep-29 10:34N 51°30' E 001°54'1110.5
2014-Sep-29 09:33N 51°23' E 002°07'1111.2
2014-Sep-29 08:33N 51°22' E 002°25'1211.7
2014-Sep-29 07:33N 51°22' E 002°43'1615.6
2014-Sep-29 06:33N 51°24' E 003°08'1716.6
2014-Sep-29 05:33N 51°26' E 003°35'1110.9
2014-Sep-29 04:33N 51°21' E 003°50'8 8.0
2014-Sep-29 03:33N 51°23' E 004°02'9 9.1
2014-Sep-29 02:34N 51°20' E 004°16'  
Track history (hours):
 
Tides and Currents Weather Stations Pressure Air Temp Water Temp Dewpoint Dewpoint Depression Visibility Wind Speed Wind Dir Waves Ship Positions

APL Denmark

Last reported at 2014-Oct-09 02:19 UTC. Time now 2014-Oct-23 08:52 UTC.
Position N 38°21' E 010°40'.
Warning: this ship's position is 14 days out of date.

Length 277 m; beam 40 m; draft 14 m.

Type: Ship (hazmat cat A). MMSI: 636091157.

Date/timePositionNaut miles runAvg speedWind from/ knotsBaromVisibWave heightAir tempDewpointWater temp
2014-Oct-09 02:19N 38°21' E 010°40'1519.5
2014-Oct-09 01:33N 38°29' E 010°24'1919.5
2014-Oct-09 00:34N 38°39' E 010°02'2019.4
2014-Oct-08 23:31N 38°50' E 009°41'1717.8
2014-Oct-08 22:33N 38°59' E 009°22'8 8.2
2014-Oct-08 21:33N 39°03' E 009°13'1111.3
2014-Oct-08 20:33N 39°13' E 009°04'0 0.3
2014-Oct-08 19:31N 39°13' E 009°04'0 0.0
2014-Oct-08 18:31N 39°13' E 009°04'0 0.0
2014-Oct-08 17:31N 39°13' E 009°04'0 0.0
2014-Oct-08 16:31N 39°13' E 009°04'0 0.0
2014-Oct-08 15:31N 39°13' E 009°04'0 0.0
2014-Oct-08 14:28N 39°13' E 009°04'0 0.0
2014-Oct-08 13:28N 39°13' E 009°04'0 0.0
2014-Oct-08 12:31N 39°13' E 009°04'0 0.0
2014-Oct-08 11:31N 39°13' E 009°04'0 0.0
2014-Oct-08 10:31N 39°13' E 009°04'0 0.0
2014-Oct-08 09:31N 39°13' E 009°04'0 0.0
2014-Oct-08 08:31N 39°13' E 009°04'0 0.0
2014-Oct-08 07:31N 39°13' E 009°04'0 0.0
2014-Oct-08 06:31N 39°13' E 009°04'0 0.0
2014-Oct-08 05:31N 39°13' E 009°04'0 0.4
2014-Oct-08 04:33N 39°13' E 009°04'8 8.2
2014-Oct-08 03:33N 39°05' E 009°07'1413.9
2014-Oct-08 02:33N 38°52' E 009°02'1716.6
2014-Oct-08 01:33N 38°46' E 008°42'1817.7
2014-Oct-08 00:33N 38°41' E 008°20'2017.7
2014-Oct-07 23:26N 38°36' E 007°55'1617.7
2014-Oct-07 22:31N 38°32' E 007°35'18217.6
2014-Oct-07 12:09N 37°42' E 003°52'1217.7
2014-Oct-07 11:28N 37°39' E 003°38'3417.6
2014-Oct-07 09:33N 37°30' E 002°57'1817.5
2014-Oct-07 08:32N 37°25' E 002°35'6817.2
2014-Oct-07 04:33N 37°07' E 001°12'1716.6
2014-Oct-07 03:32N 37°02' E 000°52'1717.2
2014-Oct-07 02:33N 36°58' E 000°32'1716.9
2014-Oct-07 01:33N 36°53' E 000°11'1916.6
2014-Oct-07 00:24N 36°48' W 000°12'24916.8
2014-Oct-06 09:33N 35°59' W 005°15'183 6.1
2014-Oct-05 03:33N 36°30' W 008°59'2210.1
2014-Oct-05 01:22N 36°39' W 009°24'910.7
2014-Oct-05 00:30N 36°46' W 009°32'4911.3
2014-Oct-04 20:08N 37°33' W 009°47'810.9
2014-Oct-04 19:22N 37°42' W 009°49'2011.0
2014-Oct-04 17:31N 38°01' W 009°55'1111.2
2014-Oct-04 16:33N 38°12' W 009°58'1411.2
2014-Oct-04 15:18N 38°26' W 010°02'1911.0
2014-Oct-04 13:32N 38°45' W 010°07'1311.3
2014-Oct-04 12:25N 38°57' W 010°07'1111.1
2014-Oct-04 11:27N 39°08' W 010°07'1110.9
2014-Oct-04 10:27N 39°19' W 010°07'  
2014-Oct-01 13:28N 50°20' W 001°01'1512.4
2014-Oct-01 12:17N 50°23' W 000°39'912.8
2014-Oct-01 11:33N 50°25' W 000°24'1513.8
2014-Oct-01 10:28N 50°29' W 000°02'1314.6
2014-Oct-01 09:34N 50°34' E 000°18'1515.1
2014-Oct-01 08:34N 50°38' E 000°41'1515.3
2014-Oct-01 07:34N 50°48' E 000°60'1514.6
2014-Oct-01 06:33N 50°58' E 001°17'1313.3
2014-Oct-01 05:33N 51°06' E 001°33'1212.3
2014-Oct-01 04:33N 51°15' E 001°47'1313.4
2014-Oct-01 03:33N 51°28' E 001°52'1515.1
2014-Oct-01 02:34N 51°43' E 001°45'9 8.6
2014-Oct-01 01:33N 51°46' E 001°32'1515.2
2014-Oct-01 00:34N 51°35' E 001°15'1414.4
2014-Sep-30 23:33N 51°29' E 000°54'1413.6
2014-Sep-30 22:33N 51°30' E 000°32'1 1.0
2014-Sep-30 21:32N 51°30' E 000°30'0 0.0
2014-Sep-30 20:32N 51°30' E 000°30'0 0.0
2014-Sep-30 19:32N 51°30' E 000°30'0 0.0
2014-Sep-30 18:32N 51°30' E 000°30'0 0.0
2014-Sep-30 17:32N 51°30' E 000°30'0 0.0
2014-Sep-30 16:32N 51°30' E 000°30'0 0.0
2014-Sep-30 15:29N 51°30' E 000°30'0 0.0
2014-Sep-30 14:32N 51°30' E 000°30'0 0.0
2014-Sep-30 13:32N 51°30' E 000°30'0 0.0
2014-Sep-30 12:32N 51°30' E 000°30'0 0.0
2014-Sep-30 11:32N 51°30' E 000°30'0 0.0
2014-Sep-30 10:32N 51°30' E 000°30'0 0.0
2014-Sep-30 09:32N 51°30' E 000°30'0 0.0
2014-Sep-30 08:32N 51°30' E 000°30'0 0.0
2014-Sep-30 07:32N 51°30' E 000°30'0 0.0
2014-Sep-30 06:32N 51°30' E 000°30'0 0.0
2014-Sep-30 05:29N 51°30' E 000°30'1 1.1
2014-Sep-30 04:33N 51°30' E 000°32'1212.3
2014-Sep-30 03:34N 51°29' E 000°52'1414.0
2014-Sep-30 02:33N 51°34' E 001°13'1616.4
2014-Sep-30 01:34N 51°46' E 001°32'9 9.3
2014-Sep-30 00:33N 51°53' E 001°40'0 0.4
2014-Sep-29 23:31N 51°54' E 001°40'0 0.0
2014-Sep-29 22:31N 51°54' E 001°40'0 0.2
2014-Sep-29 21:31N 51°54' E 001°40'0 0.1
2014-Sep-29 20:31N 51°54' E 001°40'0 0.1
2014-Sep-29 19:31N 51°54' E 001°40'0 0.0
2014-Sep-29 18:31N 51°54' E 001°40'0 0.0
2014-Sep-29 17:31N 51°54' E 001°40'0 0.0
2014-Sep-29 16:31N 51°54' E 001°40'0 0.0
2014-Sep-29 15:28N 51°54' E 001°40'0 0.2
2014-Sep-29 14:33N 51°54' E 001°40'5 4.7
2014-Sep-29 13:33N 51°52' E 001°47'10 9.5
2014-Sep-29 12:33N 51°43' E 001°49'9 9.0
2014-Sep-29 11:33N 51°34' E 001°51'5 4.5
2014-Sep-29 10:34N 51°30' E 001°54'1110.5
2014-Sep-29 09:33N 51°23' E 002°07'1111.2
2014-Sep-29 08:33N 51°22' E 002°25'1211.7
2014-Sep-29 07:33N 51°22' E 002°43'1615.6
2014-Sep-29 06:33N 51°24' E 003°08'1716.6
2014-Sep-29 05:33N 51°26' E 003°35'1110.9
2014-Sep-29 04:33N 51°21' E 003°50'8 8.0
2014-Sep-29 03:33N 51°23' E 004°02'9 9.1
2014-Sep-29 02:34N 51°20' E 004°16'  

Dump ship's entire track history